Latest Weather Observations for Perth

IDW60901

Issued at 11:31 pm WST Wednesday 19 December 2018 (issued every 10 minutes, with the page automatically refreshed every 10 minutes)

About weather observations | Map of Perth area stations | Latest observations for Perth area | Other Formats
Station Details ID: 009225 Name: PERTH METRO Lat: -31.92 Lon: 115.87 Height: 24.9 m
Data from the previous 72 hours. | See also: Recent months at Perth
Date/Time
WST
Temp
°C
App
Temp
°C
Dew
Point
°C
Rel
Hum
%
Delta-T
°C
Wind Press
QNH
hPa
Press
MSL
hPa
Rain since
9am
mm
Dir  Spd
km/h
Gust
km/h
Spd
kts
Gust
kts
19/11:30pm 19.7 17.9 13.2 66 3.7 S 15 24 8 13 1018.8 1018.7 0.0
19/11:00pm 19.9 18.5 13.4 66 3.7 S 13 20 7 11 1019.0 1018.9 0.0
19/10:30pm 20.3 19.3 13.5 65 3.9 S 11 22 6 12 1019.1 1019.0 0.0
19/10:00pm 20.6 19.7 13.8 65 3.9 S 11 20 6 11 1019.2 1019.1 0.0
19/09:30pm 20.9 20.0 13.8 64 4.1 SSW 11 20 6 11 1019.1 1019.0 0.0
19/09:00pm 21.0 20.3 14.2 65 3.9 SSW 11 19 6 10 1018.9 1018.8 0.0
19/08:30pm 21.1 20.2 13.8 63 4.2 SSW 11 19 6 10 1018.9 1018.8 0.0
19/08:00pm 20.8 20.4 14.0 65 3.9 SW 9 13 5 7 1018.6 1018.5 0.0
19/07:30pm 21.1 19.8 13.8 63 4.2 SW 13 20 7 11 1018.3 1018.2 0.0
19/07:00pm 21.4 20.1 13.8 62 4.4 SSW 13 24 7 13 1018.2 1018.1 0.0
19/06:30pm 22.0 19.8 13.4 58 5.0 SW 17 30 9 16 1018.1 1018.0 0.0
19/06:00pm 22.7 20.5 13.2 55 5.5 SW 17 30 9 16 1018.0 1017.9 0.0
19/05:30pm 23.5 21.7 13.4 53 5.9 SW 15 26 8 14 1017.7 1017.6 0.0
19/05:00pm 23.9 21.2 12.8 49 6.4 SW 19 28 10 15 1017.6 1017.5 0.0
19/04:30pm 24.1 20.9 11.8 46 7.0 SW 20 32 11 17 1017.5 1017.4 0.0
19/04:00pm 24.4 20.8 11.7 45 7.2 SSW 22 37 12 20 1017.6 1017.5 0.0
19/03:30pm 25.3 22.2 11.5 42 7.8 SSW 19 28 10 15 1017.6 1017.5 0.0
19/03:00pm 25.7 22.8 12.2 43 7.7 SW 19 32 10 17 1017.7 1017.6 0.0
19/02:30pm 26.4 24.0 12.5 42 8.1 SW 17 30 9 16 1017.9 1017.8 0.0
19/02:00pm 26.5 24.3 13.3 44 7.7 SW 17 30 9 16 1018.1 1018.0 0.0
19/01:30pm 26.3 24.3 12.7 43 7.9 SW 15 26 8 14 1018.4 1018.3 0.0
19/01:00pm 27.0 25.2 13.4 43 8.0 WSW 15 24 8 13 1018.6 1018.5 0.0
19/12:30pm 26.0 23.6 12.8 44 7.7 SW 17 24 9 13 1018.8 1018.7 0.0
19/12:00pm 26.7 24.9 10.8 37 9.0 S 11 19 6 10 1019.1 1019.0 0.0
19/11:30am 26.5 25.5 11.0 38 8.8 ESE 7 15 4 8 1019.3 1019.2 0.0
19/11:00am 25.9 24.8 10.1 37 8.8 SE 6 13 3 7 1019.4 1019.3 0.0
19/10:30am 24.8 23.1 9.9 39 8.2 SSE 9 17 5 9 1019.6 1019.5 0.0
19/10:00am 23.9 22.1 10.9 44 7.2 SSE 11 20 6 11 1019.8 1019.7 0.0
19/09:30am 23.4 22.0 10.8 45 7.0 SE 9 17 5 9 1020.0 1019.9 0.0
19/09:00am 21.9 20.0 10.4 48 6.3 ESE 11 17 6 9 1020.2 1020.1 0.0
19/08:30am 21.4 20.0 10.9 51 5.8 ESE 9 17 5 9 1020.4 1020.3 0.0
19/08:00am 20.2 18.3 10.6 54 5.2 ESE 11 22 6 12 1020.5 1020.4 0.0
19/07:30am 19.0 16.7 10.3 57 4.7 ESE 13 26 7 14 1020.4 1020.3 0.0
19/07:00am 19.1 18.0 10.6 58 4.6 ESE 7 15 4 8 1020.3 1020.2 0.0
19/06:30am 17.3 15.3 10.2 63 3.8 E 11 20 6 11 1020.1 1020.0 0.0
19/06:00am 16.8 15.1 10.0 64 3.6 E 9 20 5 11 1019.9 1019.8 0.0
19/05:30am 16.5 14.9 10.1 66 3.4 ESE 9 17 5 9 1019.5 1019.4 0.0
19/05:00am 16.6 15.5 10.5 67 3.2 ESE 7 13 4 7 1019.0 1018.9 0.0
19/04:30am 17.0 15.5 10.4 65 3.5 E 9 17 5 9 1018.7 1018.6 0.0
19/04:00am 17.4 16.3 10.5 64 3.7 ESE 7 17 4 9 1018.3 1018.2 0.0
19/03:30am 17.5 16.8 11.5 68 3.3 ESE 6 11 3 6 1018.0 1017.9 0.0
19/03:00am 18.7 16.9 10.8 60 4.3 ESE 11 22 6 12 1017.7 1017.6 0.0
19/02:30am 18.3 17.3 11.1 63 3.9 ESE 7 17 4 9 1017.4 1017.3 0.0
19/02:00am 16.4 17.0 11.8 74 2.5 CALM 0 6 0 3 1017.3 1017.2 0.0
19/01:30am 17.5 17.3 11.8 69 3.1 SSE 4 7 2 4 1017.1 1017.0 0.0
19/01:00am 17.9 17.4 11.9 68 3.3 SSE 6 9 3 5 1017.0 1016.9 0.0
19/12:30am 18.6 17.9 11.9 65 3.7 S 7 13 4 7 1017.1 1017.0 0.0
19/12:00am 18.8 17.8 12.3 66 3.6 SSE 9 15 5 8 1017.3 1017.2 0.0
 
Date/Time
WST
Temp
°C
App
Temp
°C
Dew
Point
°C
Rel
Hum
%
Delta-T
°C
Wind Press
QNH
hPa
Press
MSL
hPa
Rain since
9am
mm
Dir  Spd
km/h
Gust
km/h
Spd
kts
Gust
kts
18/11:30pm 19.1 17.8 12.4 65 3.7 S 11 17 6 9 1017.3 1017.2 0.0
18/11:00pm 19.4 18.2 12.7 65 3.8 S 11 17 6 9 1017.4 1017.3 0.0
18/10:30pm 19.6 18.4 12.8 65 3.8 S 11 15 6 8 1017.7 1017.6 0.0
18/10:00pm 20.0 18.9 13.2 65 3.9 S 11 17 6 9 1017.8 1017.7 0.0
18/09:30pm 20.2 18.8 13.4 65 3.9 S 13 19 7 10 1017.7 1017.6 0.0
18/09:00pm 20.2 18.5 13.6 66 3.8 SSW 15 22 8 12 1017.6 1017.5 0.0
18/08:30pm 20.2 19.6 13.4 65 3.9 SSW 9 22 5 12 1017.6 1017.5 0.0
18/08:00pm 20.3 19.3 13.5 65 3.9 SSW 11 24 6 13 1017.5 1017.4 0.0
18/07:30pm 20.5 19.2 13.7 65 3.9 SSW 13 26 7 14 1017.4 1017.3 0.0
18/07:00pm 20.9 19.6 13.8 64 4.1 SW 13 26 7 14 1017.1 1017.0 0.0
18/06:30pm 21.9 20.6 13.8 60 4.7 SW 13 24 7 13 1016.8 1016.7 0.0
18/06:00pm 22.0 19.8 13.4 58 5.0 SW 17 30 9 16 1016.7 1016.6 0.0
18/05:30pm 22.6 20.1 13.4 56 5.3 SW 19 33 10 18 1016.4 1016.3 0.0
18/05:00pm 23.0 20.2 12.6 52 5.9 SW 19 39 10 21 1016.3 1016.2 0.0
18/04:30pm 23.5 20.5 12.5 50 6.3 SSW 20 33 11 18 1016.2 1016.1 0.0
18/04:00pm 24.4 22.3 13.6 51 6.3 SSW 17 26 9 14 1016.3 1016.2 0.0
18/03:30pm 24.5 22.2 13.1 49 6.6 SSW 17 30 9 16 1016.4 1016.3 0.0
18/03:00pm 23.8 21.4 12.8 50 6.3 SW 17 28 9 15 1016.6 1016.5 0.0
18/02:30pm 23.9 21.5 12.5 49 6.5 SW 17 26 9 14 1017.0 1016.9 0.0
18/02:00pm 23.6 20.7 12.3 49 6.4 WSW 19 32 10 17 1017.3 1017.2 0.0
18/01:30pm 23.6 21.1 12.3 49 6.4 SW 17 28 9 15 1017.4 1017.3 0.0
18/01:00pm 24.4 22.0 12.7 48 6.7 WSW 17 28 9 15 1017.5 1017.4 0.0
18/12:30pm 24.4 21.9 12.4 47 6.9 SW 17 26 9 14 1017.6 1017.5 0.0
18/12:00pm 24.2 22.0 12.2 47 6.8 SW 15 24 8 13 1017.8 1017.7 0.0
18/11:30am 24.0 22.1 11.7 46 7.0 SW 13 20 7 11 1017.9 1017.8 0.0
18/11:00am 24.2 22.4 9.4 39 8.0 SW 9 17 5 9 1018.0 1017.9 0.0
18/10:30am 23.0 21.5 10.4 45 6.9 S 9 17 5 9 1018.1 1018.0 0.0
18/10:00am 22.9 21.8 10.7 46 6.7 S 7 13 4 7 1018.1 1018.0 0.0
18/09:30am 21.4 20.3 10.6 50 5.9 SSE 7 19 4 10 1018.3 1018.2 0.0
18/09:00am 21.2 20.3 11.5 54 5.4 SSE 7 13 4 7 1018.3 1018.2 0.0
18/08:30am 20.4 19.1 11.3 56 5.0 SE 9 15 5 8 1018.2 1018.1 0.0
18/08:00am 19.8 18.8 11.0 57 4.8 SE 7 13 4 7 1018.2 1018.1 0.0
18/07:30am 18.2 16.8 10.8 62 4.0 SE 9 22 5 12 1018.1 1018.0 0.0
18/07:00am 18.3 16.9 10.9 62 4.0 ESE 9 19 5 10 1018.1 1018.0 0.0
18/06:30am 16.7 15.3 10.8 68 3.2 SSE 9 15 5 8 1017.8 1017.7 0.0
18/06:00am 16.0 14.5 10.7 71 2.8 SE 9 13 5 7 1017.6 1017.5 0.0
18/05:30am 15.5 14.0 10.7 73 2.5 SE 9 15 5 8 1017.4 1017.3 0.0
18/05:00am 15.6 14.5 10.6 72 2.6 SSE 7 13 4 7 1016.9 1016.8 0.0
18/04:30am 16.0 14.5 10.7 71 2.8 SE 9 17 5 9 1016.5 1016.4 0.0
18/04:00am 16.2 14.8 10.9 71 2.8 SE 9 15 5 8 1016.1 1016.0 0.0
18/03:30am 16.5 15.2 11.2 71 2.9 SE 9 15 5 8 1015.8 1015.7 0.0
18/03:00am 17.0 15.6 10.8 67 3.3 SE 9 17 5 9 1015.6 1015.5 0.0
18/02:30am 17.5 16.1 10.9 65 3.6 SE 9 15 5 8 1015.5 1015.4 0.0
18/02:00am 17.8 16.5 11.1 65 3.6 SE 9 17 5 9 1015.4 1015.3 0.0
18/01:30am 18.5 16.8 11.1 62 4.0 SE 11 20 6 11 1015.3 1015.2 0.0
18/01:00am 18.8 17.2 11.4 62 4.0 SE 11 17 6 9 1015.1 1015.0 0.0
18/12:30am 19.5 17.8 11.3 59 4.5 SE 11 20 6 11 1015.2 1015.1 0.0
18/12:00am 20.0 18.9 11.8 59 4.5 SE 9 20 5 11 1015.4 1015.3 0.0
 
Date/Time
WST
Temp
°C
App
Temp
°C
Dew
Point
°C
Rel
Hum
%
Delta-T
°C
Wind Press
QNH
hPa
Press
MSL
hPa
Rain since
9am
mm
Dir  Spd
km/h
Gust
km/h
Spd
kts
Gust
kts
17/11:30pm 20.5 19.2 11.4 56 5.0 SSE 9 17 5 9 1015.3 1015.2 0.0
17/11:00pm 21.0 19.0 11.6 55 5.2 SE 13 20 7 11 1015.3 1015.2 0.0
17/10:30pm 20.8 20.0 13.0 61 4.4 SSE 9 15 5 8 1015.3 1015.2 0.0
17/10:00pm 21.2 20.3 13.6 62 4.4 S 11 17 6 9 1015.2 1015.1 0.0
17/09:30pm 21.2 21.0 14.6 66 3.9 S 9 15 5 8 1015.0 1014.9 0.0
17/09:00pm 21.3 21.1 14.7 66 3.9 SSW 9 15 5 8 1014.6 1014.5 0.0
17/08:30pm 21.2 21.2 15.1 68 3.6 SSW 9 22 5 12 1014.3 1014.2 0.0
17/08:00pm 21.2 20.5 15.3 69 3.5 SSW 13 30 7 16 1014.1 1014.0 0.0
17/07:30pm 21.2 19.7 15.3 69 3.5 SSW 17 28 9 15 1013.8 1013.7 0.0
17/07:00pm 21.3 19.9 15.6 70 3.4 SW 17 32 9 17 1013.7 1013.6 0.0
17/06:30pm 22.2 20.3 15.1 64 4.2 SW 19 33 10 18 1013.3 1013.1 0.0
17/06:00pm 22.8 19.9 14.1 58 5.1 SW 22 43 12 23 1012.9 1012.7 0.0
17/05:30pm 23.0 20.3 14.6 59 5.0 SW 22 41 12 22 1012.4 1012.2 0.0
17/05:00pm 23.1 20.1 14.7 59 5.0 SW 24 46 13 25 1012.0 1011.9 0.0
17/04:30pm 23.8 20.6 14.2 55 5.7 SSW 24 43 13 23 1011.9 1011.8 0.0
17/04:00pm 24.2 20.5 14.0 53 6.0 SW 26 43 14 23 1011.9 1011.8 0.0
17/03:30pm 24.6 21.6 13.8 51 6.3 SW 22 43 12 23 1012.0 1011.9 0.0
17/03:00pm 23.7 20.3 13.8 53 5.8 SW 24 39 13 21 1012.4 1012.2 0.0
17/02:30pm 24.3 20.7 14.1 53 6.0 SSW 26 41 14 22 1012.7 1012.5 0.0
17/02:00pm 24.8 21.5 14.0 51 6.4 SSW 24 35 13 19 1012.7 1012.5 0.0
17/01:30pm 24.8 21.4 13.7 50 6.5 SW 24 41 13 22 1013.0 1012.8 0.0
17/01:00pm 24.5 21.9 13.7 51 6.3 SW 20 37 11 20 1013.0 1012.8 0.0
17/12:30pm 25.6 23.2 12.8 45 7.4 SSW 17 30 9 16 1013.2 1013.0 0.0
17/12:00pm 26.1 24.5 11.5 40 8.3 SSW 11 20 6 11 1013.1 1012.9 0.0
17/11:30am 25.0 22.7 11.6 43 7.6 S 15 26 8 14 1013.4 1013.3 0.0
17/11:00am 24.5 22.3 12.1 46 7.1 SSW 15 28 8 15 1013.5 1013.4 0.0
17/10:30am 23.1 20.3 11.2 47 6.6 S 17 35 9 19 1013.8 1013.7 0.0
17/10:00am 22.8 20.4 11.5 49 6.3 SSW 15 24 8 13 1013.8 1013.7 0.0
17/09:30am 22.1 19.6 11.2 50 6.1 S 15 28 8 15 1013.8 1013.7 0.0
17/09:00am 21.6 19.5 11.3 52 5.7 SSW 13 24 7 13 1013.7 1013.6 0.0
17/08:30am 20.6 18.6 11.5 56 5.0 SE 13 26 7 14 1013.7 1013.6 0.0
17/08:00am 19.5 17.5 11.5 60 4.4 SE 13 24 7 13 1013.7 1013.6 0.0
17/07:30am 17.8 15.8 11.4 66 3.5 S 13 19 7 10 1013.4 1013.3 0.0
17/07:00am 17.5 15.1 11.3 67 3.4 S 15 20 8 11 1013.3 1013.1 0.0
17/06:30am 17.1 15.0 11.2 68 3.2 S 13 20 7 11 1012.9 1012.7 0.0
17/06:00am 16.6 15.3 11.3 71 2.9 S 9 17 5 9 1012.3 1012.1 0.0
17/05:30am 16.6 14.9 11.3 71 2.9 S 11 19 6 10 1011.8 1011.7 0.0
17/05:00am 16.6 14.9 11.3 71 2.9 S 11 19 6 10 1011.4 1011.3 0.0
17/04:30am 16.8 14.7 11.1 69 3.1 SSE 13 22 7 12 1011.1 1011.0 0.0
17/04:00am 16.9 14.8 11.2 69 3.1 S 13 20 7 11 1010.7 1010.6 0.0
17/03:30am 16.9 14.4 11.0 68 3.2 SSE 15 24 8 13 1010.1 1010.0 0.0
17/03:00am 17.4 15.1 10.3 63 3.8 SSE 13 24 7 13 1009.9 1009.8 0.0
17/02:30am 17.6 14.9 10.2 62 3.9 SSE 15 30 8 16 1009.7 1009.6 0.0
17/02:00am 17.7 15.5 10.8 64 3.7 SSE 13 19 7 10 1009.6 1009.5 0.0
17/01:30am 18.0 15.5 10.9 63 3.8 SSE 15 24 8 13 1009.9 1009.8 0.0
17/01:00am 18.2 14.9 11.0 63 3.9 SSE 19 30 10 16 1010.1 1010.0 0.0
17/12:30am 18.5 15.3 11.1 62 4.0 SSE 19 32 10 17 1010.1 1010.0 0.0
17/12:00am 18.8 16.9 11.9 64 3.8 SSE 13 22 7 12 1010.1 1010.0 0.0

Latest Capital City Observations: Canberra | Sydney | Melbourne | Brisbane | Adelaide | Perth | Hobart | Darwin

Other Formats:

Comma delimited format used in spreadsheet applications
http://www.bom.gov.au/fwo/IDW60901/IDW60901.94608.axf

JavaScript Object Notation format (JSON) in row-major order
http://www.bom.gov.au/fwo/IDW60901/IDW60901.94608.json